createdAt,value
2022-09-04T00:00:01.688Z,16.1
2022-09-04T00:01:07.845Z,16.1
2022-09-04T00:02:14.013Z,16
2022-09-04T00:03:20.194Z,16.1
2022-09-04T00:04:26.350Z,16
2022-09-04T00:05:32.518Z,16
2022-09-04T00:06:38.675Z,16.1
2022-09-04T00:07:43.872Z,16
2022-09-04T00:08:50.044Z,16
2022-09-04T00:09:56.234Z,16
2022-09-04T00:11:02.399Z,16
2022-09-04T00:12:08.549Z,16
2022-09-04T00:13:14.775Z,15.9
2022-09-04T00:14:20.893Z,15.9
2022-09-04T00:15:27.072Z,15.8
2022-09-04T00:16:33.235Z,15.8
2022-09-04T00:17:39.401Z,15.8
2022-09-04T00:18:45.575Z,15.8
2022-09-04T00:19:51.742Z,15.8
2022-09-04T00:20:57.912Z,15.7
2022-09-04T00:22:03.076Z,15.7
2022-09-04T00:23:09.256Z,15.7
2022-09-04T00:24:15.430Z,15.7
2022-09-04T00:25:21.589Z,15.7
2022-09-04T00:26:27.767Z,15.7
2022-09-04T00:27:33.946Z,15.7
2022-09-04T00:28:40.112Z,15.7
2022-09-04T00:29:46.276Z,15.7
2022-09-04T00:30:52.498Z,15.7
2022-09-04T00:31:58.624Z,15.7
2022-09-04T00:33:04.805Z,15.7
2022-09-04T00:34:11.000Z,15.8
2022-09-04T00:35:17.145Z,15.8
2022-09-04T00:36:22.335Z,15.8
2022-09-04T00:37:28.545Z,15.9
2022-09-04T00:38:34.679Z,15.8
2022-09-04T00:39:40.855Z,15.8
2022-09-04T00:40:47.098Z,15.8
2022-09-04T00:41:53.241Z,15.8
2022-09-04T00:42:59.409Z,15.8
2022-09-04T00:44:05.574Z,15.8
2022-09-04T00:45:11.750Z,15.7
2022-09-04T00:46:17.927Z,15.7
2022-09-04T00:47:24.099Z,15.7
2022-09-04T00:48:30.265Z,15.7
2022-09-04T00:49:36.460Z,15.6
2022-09-04T00:50:41.638Z,15.6
2022-09-04T00:51:47.811Z,15.6
2022-09-04T00:52:53.987Z,15.6
2022-09-04T00:54:00.158Z,15.7
2022-09-04T00:55:06.329Z,15.7
2022-09-04T00:56:12.510Z,15.7
2022-09-04T00:57:18.677Z,15.8
2022-09-04T00:58:24.860Z,15.7
2022-09-04T00:59:31.026Z,15.7
2022-09-04T01:00:37.174Z,15.7
2022-09-04T01:01:43.355Z,15.7
2022-09-04T01:02:49.529Z,15.7
2022-09-04T01:03:55.697Z,15.7
2022-09-04T01:05:00.896Z,15.7
2022-09-04T01:06:07.073Z,15.7
2022-09-04T01:07:13.225Z,15.7
2022-09-04T01:08:19.401Z,15.6
2022-09-04T01:09:25.577Z,15.6
2022-09-04T01:10:31.743Z,15.7
2022-09-04T01:11:37.921Z,15.7
2022-09-04T01:12:44.082Z,15.7
2022-09-04T01:13:50.264Z,15.7
2022-09-04T01:14:56.463Z,15.7
2022-09-04T01:16:02.620Z,15.7
2022-09-04T01:17:08.777Z,15.7
2022-09-04T01:18:14.966Z,15.6
2022-09-04T01:19:20.143Z,15.6
2022-09-04T01:20:26.314Z,15.6
2022-09-04T01:21:32.528Z,15.6
2022-09-04T01:22:38.692Z,15.7
2022-09-04T01:23:44.874Z,15.8
2022-09-04T01:24:51.015Z,15.8
2022-09-04T01:25:57.200Z,15.7
2022-09-04T01:27:03.391Z,15.7
2022-09-04T01:28:09.570Z,15.7
2022-09-04T01:29:15.717Z,15.7
2022-09-04T01:30:21.903Z,15.8
2022-09-04T01:31:28.073Z,15.8
2022-09-04T01:32:34.258Z,15.8
2022-09-04T01:33:39.466Z,15.7
2022-09-04T01:34:45.621Z,15.7
2022-09-04T01:35:51.789Z,15.8
2022-09-04T01:36:57.960Z,15.7
2022-09-04T01:38:04.136Z,15.7
2022-09-04T01:39:10.322Z,15.7
2022-09-04T01:40:16.499Z,15.6
2022-09-04T01:41:22.704Z,15.6
2022-09-04T01:42:28.852Z,15.6
2022-09-04T01:43:35.014Z,15.6
2022-09-04T01:44:41.186Z,15.5
2022-09-04T01:45:47.376Z,15.5
2022-09-04T01:46:53.578Z,15.5
2022-09-04T01:47:58.734Z,15.5
2022-09-04T01:49:04.948Z,15.5
2022-09-04T01:50:11.089Z,15.5
2022-09-04T01:51:17.249Z,15.5
2022-09-04T01:52:23.437Z,15.4
2022-09-04T01:53:29.623Z,15.4
2022-09-04T01:54:35.812Z,15.4
2022-09-04T01:55:41.959Z,15.3
2022-09-04T01:56:48.136Z,15.3
2022-09-04T01:57:54.321Z,15.2
2022-09-04T01:59:00.533Z,15.2
2022-09-04T02:00:06.673Z,15.2
2022-09-04T02:01:12.849Z,15.2
2022-09-04T02:02:18.026Z,15.2
2022-09-04T02:03:24.211Z,15.2
2022-09-04T02:04:30.627Z,15.2
2022-09-04T02:05:36.542Z,15.2
2022-09-04T02:06:42.719Z,15.2
2022-09-04T02:07:48.899Z,15.2
2022-09-04T02:08:55.102Z,15.2
2022-09-04T02:10:01.268Z,15.2
2022-09-04T02:11:07.452Z,15.1
2022-09-04T02:12:13.650Z,15.1
2022-09-04T02:13:19.782Z,15
2022-09-04T02:14:25.954Z,15
2022-09-04T02:15:32.122Z,15
2022-09-04T02:16:37.311Z,15
2022-09-04T02:17:43.478Z,15
2022-09-04T02:18:49.651Z,15
2022-09-04T02:19:55.889Z,15
2022-09-04T02:21:02.003Z,14.9
2022-09-04T02:22:08.185Z,14.8
2022-09-04T02:23:14.398Z,14.8
2022-09-04T02:24:20.553Z,14.8
2022-09-04T02:25:26.724Z,14.8
2022-09-04T02:26:32.930Z,14.7
2022-09-04T02:27:39.066Z,14.8
2022-09-04T02:28:45.240Z,14.8
2022-09-04T02:29:51.446Z,14.8
2022-09-04T02:30:56.624Z,14.8
2022-09-04T02:32:02.782Z,14.8
2022-09-04T02:33:08.977Z,14.8
2022-09-04T02:34:15.152Z,14.8
2022-09-04T02:35:21.325Z,14.8
2022-09-04T02:36:27.538Z,14.7
2022-09-04T02:37:33.699Z,14.7
2022-09-04T02:38:39.859Z,14.9
2022-09-04T02:39:46.038Z,14.9
2022-09-04T02:40:52.239Z,14.9
2022-09-04T02:41:58.392Z,14.8
2022-09-04T02:43:04.574Z,14.9
2022-09-04T02:44:10.751Z,14.8
2022-09-04T02:45:15.937Z,14.9
2022-09-04T02:46:22.108Z,14.8
2022-09-04T02:47:28.288Z,14.9
2022-09-04T02:48:34.458Z,14.8
2022-09-04T02:49:40.647Z,14.8
2022-09-04T02:50:46.824Z,14.8
2022-09-04T02:51:52.016Z,14.7
2022-09-04T02:52:58.196Z,14.8
2022-09-04T02:54:04.396Z,14.7
2022-09-04T02:55:10.541Z,14.7
2022-09-04T02:56:16.735Z,14.7
2022-09-04T02:57:22.907Z,14.7
2022-09-04T02:58:29.072Z,14.8
2022-09-04T02:59:35.249Z,14.8
2022-09-04T03:00:41.427Z,14.8
2022-09-04T03:01:47.597Z,14.8
2022-09-04T03:02:53.796Z,14.8
2022-09-04T03:03:59.958Z,14.8
2022-09-04T03:05:06.141Z,14.8
2022-09-04T03:06:11.337Z,14.8
2022-09-04T03:07:17.542Z,14.8
2022-09-04T03:08:23.713Z,14.8
2022-09-04T03:09:29.879Z,14.8
2022-09-04T03:10:36.057Z,14.8
2022-09-04T03:11:42.238Z,14.8
2022-09-04T03:12:48.435Z,14.8
2022-09-04T03:13:54.589Z,14.8
2022-09-04T03:15:00.781Z,14.8
2022-09-04T03:16:06.956Z,14.8
2022-09-04T03:17:13.131Z,14.8
2022-09-04T03:18:19.345Z,14.9
2022-09-04T03:19:25.535Z,14.9
2022-09-04T03:20:30.693Z,14.8
2022-09-04T03:21:36.910Z,14.9
2022-09-04T03:22:43.057Z,14.9
2022-09-04T03:23:49.223Z,14.9
2022-09-04T03:24:55.397Z,14.9
2022-09-04T03:26:01.589Z,15
2022-09-04T03:27:07.749Z,15
2022-09-04T03:28:13.936Z,15
2022-09-04T03:29:20.118Z,15
2022-09-04T03:30:26.289Z,15
2022-09-04T03:31:32.489Z,15
2022-09-04T03:32:38.665Z,15
2022-09-04T03:33:44.828Z,15
2022-09-04T03:34:50.023Z,15
2022-09-04T03:35:56.203Z,15
2022-09-04T03:37:02.382Z,15
2022-09-04T03:38:08.574Z,15
2022-09-04T03:39:14.740Z,15
2022-09-04T03:40:20.941Z,15.1
2022-09-04T03:41:27.114Z,15.1
2022-09-04T03:42:33.295Z,15.1
2022-09-04T03:43:39.479Z,15.1
2022-09-04T03:44:45.668Z,15.1
2022-09-04T03:45:51.850Z,15
2022-09-04T03:46:58.039Z,15
2022-09-04T03:48:04.219Z,15
2022-09-04T03:49:09.418Z,15.1
2022-09-04T03:50:15.605Z,15.1
2022-09-04T03:51:21.793Z,15.1
2022-09-04T03:52:27.952Z,15
2022-09-04T03:53:34.147Z,15
2022-09-04T03:54:40.327Z,15
2022-09-04T03:55:46.530Z,15
2022-09-04T03:56:52.715Z,15
2022-09-04T03:57:58.880Z,15.1
2022-09-04T03:59:05.057Z,15.1
2022-09-04T04:00:11.251Z,15
2022-09-04T04:01:17.400Z,15.1
2022-09-04T04:02:23.572Z,15
2022-09-04T04:03:29.752Z,15
2022-09-04T04:04:35.936Z,14.9
2022-09-04T04:05:42.099Z,15
2022-09-04T04:06:48.279Z,15
2022-09-04T04:07:54.459Z,14.9
2022-09-04T04:08:59.657Z,14.9
2022-09-04T04:10:05.860Z,14.9
2022-09-04T04:11:12.032Z,14.9
2022-09-04T04:12:18.201Z,15
2022-09-04T04:13:24.377Z,15
2022-09-04T04:14:30.549Z,15
2022-09-04T04:15:36.736Z,15
2022-09-04T04:16:42.920Z,15
2022-09-04T04:17:49.102Z,15
2022-09-04T04:18:55.291Z,14.9
2022-09-04T04:20:01.470Z,15
2022-09-04T04:21:07.641Z,15
2022-09-04T04:22:13.822Z,15
2022-09-04T04:23:19.021Z,15
2022-09-04T04:24:25.193Z,15
2022-09-04T04:25:31.377Z,15
2022-09-04T04:26:37.560Z,15
2022-09-04T04:27:43.738Z,15
2022-09-04T04:28:49.924Z,15
2022-09-04T04:29:56.114Z,15
2022-09-04T04:31:02.300Z,14.9
2022-09-04T04:32:08.475Z,14.9
2022-09-04T04:33:14.662Z,14.9
2022-09-04T04:34:20.855Z,14.9
2022-09-04T04:35:27.110Z,14.9
2022-09-04T04:36:33.253Z,14.9
2022-09-04T04:37:38.436Z,14.9
2022-09-04T04:38:44.617Z,14.9
2022-09-04T04:39:50.795Z,14.9
2022-09-04T04:40:56.980Z,14.9
2022-09-04T04:42:03.161Z,14.9
2022-09-04T04:43:09.342Z,15
2022-09-04T04:44:15.528Z,15
2022-09-04T04:45:21.707Z,15
2022-09-04T04:46:27.891Z,15
2022-09-04T04:47:34.073Z,15
2022-09-04T04:48:40.272Z,15
2022-09-04T04:49:46.445Z,15.1
2022-09-04T04:50:52.612Z,15.1
2022-09-04T04:51:57.811Z,15.1
2022-09-04T04:53:03.998Z,15.1
2022-09-04T04:54:10.180Z,15.1
2022-09-04T04:55:16.358Z,15.1
2022-09-04T04:56:22.539Z,15.1
2022-09-04T04:57:28.728Z,15.1
2022-09-04T04:58:34.914Z,15
2022-09-04T04:59:41.091Z,15
2022-09-04T05:00:47.281Z,15
2022-09-04T05:01:53.493Z,15
2022-09-04T05:02:59.647Z,15
2022-09-04T05:04:05.832Z,15
2022-09-04T05:05:12.012Z,15
2022-09-04T05:06:18.190Z,15
2022-09-04T05:07:24.365Z,15
2022-09-04T05:08:30.541Z,15
2022-09-04T05:09:36.722Z,15
2022-09-04T05:10:42.913Z,15
2022-09-04T05:11:49.089Z,15
2022-09-04T05:12:55.260Z,14.9
2022-09-04T05:14:00.465Z,14.9
2022-09-04T05:15:06.641Z,14.9
2022-09-04T05:16:12.831Z,15
2022-09-04T05:17:19.009Z,15
2022-09-04T05:18:25.172Z,15
2022-09-04T05:19:31.375Z,15
2022-09-04T05:20:37.521Z,14.9
2022-09-04T05:21:43.705Z,15
2022-09-04T05:22:49.892Z,15
2022-09-04T05:23:56.055Z,15.1
2022-09-04T05:25:02.251Z,15.1
2022-09-04T05:26:08.425Z,15.1
2022-09-04T05:27:14.599Z,15.2
2022-09-04T05:28:19.804Z,15.2
2022-09-04T05:29:25.967Z,15.4
2022-09-04T05:30:32.152Z,15.5
2022-09-04T05:31:38.320Z,15.6
2022-09-04T05:32:44.493Z,16.2
2022-09-04T05:33:50.658Z,16.2
2022-09-04T05:34:56.825Z,16
2022-09-04T05:36:03.018Z,16.4
2022-09-04T05:37:09.165Z,17
2022-09-04T05:38:15.315Z,17.2
2022-09-04T05:39:21.471Z,17.5
2022-09-04T05:40:27.610Z,17.6
2022-09-04T05:41:33.755Z,17.7
2022-09-04T05:42:38.913Z,18
2022-09-04T05:43:45.053Z,18.4
2022-09-04T05:44:51.189Z,18.6
2022-09-04T05:45:57.321Z,18.4
2022-09-04T05:47:03.441Z,18.3
2022-09-04T05:48:09.547Z,18.5
2022-09-04T05:49:15.659Z,18.1
2022-09-04T05:50:21.766Z,18.2
2022-09-04T05:51:27.889Z,17.9
2022-09-04T05:52:33.973Z,17.2
2022-09-04T05:53:40.066Z,16.5
2022-09-04T05:54:46.165Z,16.4
2022-09-04T05:55:52.262Z,16.3
2022-09-04T05:56:58.374Z,16.1
2022-09-04T05:58:04.478Z,16.3
2022-09-04T05:59:10.585Z,16.5
2022-09-04T06:00:16.699Z,16.4
2022-09-04T06:01:22.809Z,16.1
2022-09-04T06:02:28.955Z,16.1
2022-09-04T06:03:35.051Z,16.2
2022-09-04T06:04:41.160Z,16
2022-09-04T06:05:47.344Z,16
2022-09-04T06:06:53.411Z,15.9
2022-09-04T06:07:59.552Z,16
2022-09-04T06:09:04.688Z,15.8
2022-09-04T06:10:10.814Z,15.9
2022-09-04T06:11:16.947Z,16
2022-09-04T06:12:23.107Z,16
2022-09-04T06:13:29.227Z,15.9
2022-09-04T06:14:35.365Z,15.9
2022-09-04T06:15:41.501Z,16
2022-09-04T06:16:47.630Z,16.1
2022-09-04T06:17:53.780Z,16.3
2022-09-04T06:18:59.916Z,16.4
2022-09-04T06:20:06.062Z,16.3
2022-09-04T06:21:12.215Z,16.4
2022-09-04T06:22:18.351Z,16.6
2022-09-04T06:23:23.515Z,16.5
2022-09-04T06:24:29.656Z,16.4
2022-09-04T06:25:35.809Z,16.4
2022-09-04T06:26:41.939Z,16.5
2022-09-04T06:27:48.096Z,17
2022-09-04T06:28:54.257Z,17
2022-09-04T06:30:00.373Z,16.8
2022-09-04T06:31:06.501Z,16.7
2022-09-04T06:32:12.667Z,16.6
2022-09-04T06:33:17.798Z,16.4
2022-09-04T06:34:23.935Z,16.6
2022-09-04T06:35:30.066Z,16.6
2022-09-04T06:36:36.206Z,16.7
2022-09-04T06:37:42.369Z,16.6
2022-09-04T06:38:48.463Z,16.8
2022-09-04T06:39:54.599Z,16.6
2022-09-04T06:41:00.731Z,16.6
2022-09-04T06:42:06.888Z,16.8
2022-09-04T06:43:13.033Z,16.6
2022-09-04T06:44:19.124Z,16.5
2022-09-04T06:45:25.260Z,16.8
2022-09-04T06:46:31.422Z,16.8
2022-09-04T06:47:36.572Z,16.9
2022-09-04T06:48:42.678Z,17.1
2022-09-04T06:49:48.804Z,17.3
2022-09-04T06:50:54.931Z,17.3
2022-09-04T06:52:01.063Z,17.7
2022-09-04T06:53:07.191Z,18
2022-09-04T06:54:13.303Z,17.7
2022-09-04T06:55:19.431Z,17.5
2022-09-04T06:56:25.544Z,17.4
2022-09-04T06:57:31.682Z,17.3
2022-09-04T06:58:37.787Z,17.4
2022-09-04T06:59:43.892Z,17.4
2022-09-04T07:00:50.022Z,17.8
2022-09-04T07:01:56.157Z,18.4
2022-09-04T07:03:02.290Z,19.3
2022-09-04T07:04:08.444Z,20.3
2022-09-04T07:05:14.472Z,20.7
2022-09-04T07:06:20.577Z,20.3
2022-09-04T07:07:26.680Z,20.6
2022-09-04T07:08:32.761Z,20.4
2022-09-04T07:09:38.844Z,21
2022-09-04T07:10:44.929Z,21.5
2022-09-04T07:11:50.966Z,21.4
2022-09-04T07:12:57.023Z,21.4
2022-09-04T07:14:03.098Z,21
2022-09-04T07:15:09.145Z,21
2022-09-04T07:16:15.209Z,21.6
2022-09-04T07:17:21.189Z,21.8
2022-09-04T07:18:27.238Z,21.6
2022-09-04T07:19:33.255Z,21.3
2022-09-04T07:20:39.282Z,21.9
2022-09-04T07:21:45.348Z,22.1
2022-09-04T07:22:51.355Z,21.9
2022-09-04T07:23:57.313Z,20.7
2022-09-04T07:25:03.337Z,21.2
2022-09-04T07:26:09.342Z,21.2
2022-09-04T07:27:15.317Z,21.3
2022-09-04T07:28:21.443Z,21.4
2022-09-04T07:29:27.481Z,22.5
2022-09-04T07:30:33.538Z,22.4
2022-09-04T07:31:39.628Z,22.2
2022-09-04T07:32:45.743Z,21.1
2022-09-04T07:33:51.753Z,20.8
2022-09-04T07:34:57.851Z,20.9
2022-09-04T07:36:03.888Z,21.8
2022-09-04T07:37:09.950Z,21.4
2022-09-04T07:38:16.050Z,21.6
2022-09-04T07:39:22.086Z,22
2022-09-04T07:40:28.169Z,21.9
2022-09-04T07:41:34.233Z,22
2022-09-04T07:42:40.414Z,22.5
2022-09-04T07:43:46.585Z,22.6
2022-09-04T07:44:52.764Z,21.8
2022-09-04T07:45:58.956Z,22.3
2022-09-04T07:47:05.135Z,21.9
2022-09-04T07:48:11.353Z,21.5
2022-09-04T07:49:17.489Z,21.7
2022-09-04T07:50:23.673Z,21.1
2022-09-04T07:51:29.858Z,21.7
2022-09-04T07:52:36.076Z,22.2
2022-09-04T07:53:42.215Z,21.8
2022-09-04T07:54:48.392Z,22.1
2022-09-04T07:55:54.583Z,22.1
2022-09-04T07:58:29.433Z,22
2022-09-04T07:59:34.724Z,21.9
2022-09-04T08:00:40.708Z,22.6
2022-09-04T08:01:46.682Z,22.9
2022-09-04T08:02:52.682Z,22.6
2022-09-04T08:03:58.658Z,22.7
2022-09-04T08:05:04.629Z,22.9
2022-09-04T08:06:10.621Z,22.4
2022-09-04T08:07:16.604Z,22.1
2022-09-04T08:08:22.583Z,22
2022-09-04T08:09:28.594Z,21.8
2022-09-04T08:10:34.552Z,22.4
2022-09-04T08:11:40.544Z,21.9
2022-09-04T08:12:46.601Z,21.8
2022-09-04T08:13:52.559Z,21.6
2022-09-04T08:14:58.523Z,21.7
2022-09-04T08:16:04.542Z,21.8
2022-09-04T08:17:10.536Z,21.7
2022-09-04T08:18:16.606Z,21.2
2022-09-04T08:19:22.564Z,21.3
2022-09-04T08:20:28.567Z,21.5
2022-09-04T08:21:34.625Z,21.3
2022-09-04T08:22:40.591Z,21.3
2022-09-04T08:23:46.606Z,21.2
2022-09-04T08:24:52.632Z,21.2
2022-09-04T08:25:58.663Z,21.2
2022-09-04T08:27:04.787Z,21.2
2022-09-04T08:28:10.900Z,20.9
2022-09-04T08:29:17.017Z,20.9
2022-09-04T08:30:23.103Z,20.8
2022-09-04T08:31:29.255Z,20.8
2022-09-04T08:32:35.352Z,20.8
2022-09-04T08:33:41.509Z,21
2022-09-04T08:34:47.650Z,20.8
2022-09-04T08:35:53.747Z,20.7
2022-09-04T08:36:59.886Z,20.7
2022-09-04T08:38:06.025Z,20.8
2022-09-04T08:39:12.146Z,20.9
2022-09-04T08:40:18.304Z,21
2022-09-04T08:41:24.561Z,21.2
2022-09-04T08:42:29.787Z,21.6
2022-09-04T08:43:35.847Z,22
2022-09-04T08:44:41.917Z,22.3
2022-09-04T08:45:47.986Z,22.2
2022-09-04T08:46:54.047Z,21.8
2022-09-04T08:48:00.124Z,21.8
2022-09-04T08:49:06.184Z,21.6
2022-09-04T08:50:12.268Z,21.6
2022-09-04T08:51:18.313Z,21.5
2022-09-04T08:52:24.380Z,21.8
2022-09-04T08:53:30.465Z,21.7
2022-09-04T08:54:36.524Z,21.5
2022-09-04T08:55:42.582Z,21.6
2022-09-04T08:56:48.660Z,21.7
2022-09-04T08:57:54.728Z,21.7
2022-09-04T08:59:00.790Z,21.8
2022-09-04T09:00:06.888Z,21.5
2022-09-04T09:01:12.922Z,21.8
2022-09-04T09:02:19.044Z,22.3
2022-09-04T09:03:25.075Z,21.8
2022-09-04T09:04:31.155Z,22
2022-09-04T09:05:37.210Z,21.8
2022-09-04T09:06:43.310Z,21.7
2022-09-04T09:07:49.369Z,22
2022-09-04T09:08:55.452Z,21.6
2022-09-04T09:10:01.652Z,21.9
2022-09-04T09:11:07.735Z,22.3
2022-09-04T09:12:13.903Z,23
2022-09-04T09:13:20.037Z,23
2022-09-04T09:14:26.162Z,22.7
2022-09-04T09:15:32.318Z,22.5
2022-09-04T09:16:38.440Z,21.9
2022-09-04T09:17:44.583Z,21.4
2022-09-04T09:18:50.722Z,21.9
2022-09-04T09:19:56.867Z,22.3
2022-09-04T09:21:03.013Z,22.5
2022-09-04T09:22:09.138Z,22.3
2022-09-04T09:23:15.283Z,22
2022-09-04T09:24:21.548Z,21.9
2022-09-04T09:25:26.759Z,21.7
2022-09-04T09:26:32.830Z,22.2
2022-09-04T09:27:38.880Z,22.5
2022-09-04T09:28:44.948Z,22.1
2022-09-04T09:29:51.030Z,22.1
2022-09-04T09:30:57.081Z,22.3
2022-09-04T09:32:03.147Z,22.3
2022-09-04T09:33:09.212Z,22.2
2022-09-04T09:34:15.313Z,22.8
2022-09-04T09:35:21.332Z,22.6
2022-09-04T09:36:27.404Z,22.7
2022-09-04T09:37:33.488Z,23.1
2022-09-04T09:38:39.525Z,23.2
2022-09-04T09:39:45.625Z,22.6
2022-09-04T09:40:51.635Z,22.2
2022-09-04T09:41:57.730Z,22.4
2022-09-04T09:43:03.746Z,22.6
2022-09-04T09:44:09.827Z,22.5
2022-09-04T09:45:15.873Z,22.3
2022-09-04T09:46:21.954Z,22.2
2022-09-04T09:47:28.019Z,22.4
2022-09-04T09:48:34.052Z,22.7
2022-09-04T09:49:40.116Z,22.7
2022-09-04T09:50:46.177Z,22.6
2022-09-04T09:51:52.281Z,22.8
2022-09-04T09:52:58.427Z,22.9
2022-09-04T09:54:04.516Z,23
2022-09-04T09:55:10.632Z,23
2022-09-04T09:56:16.755Z,22.9
2022-09-04T09:57:22.899Z,23.3
2022-09-04T09:58:29.046Z,23.8
2022-09-04T09:59:35.174Z,23.7
2022-09-04T10:00:41.335Z,23.9
2022-09-04T10:01:47.425Z,24.6
2022-09-04T10:02:53.593Z,24.8
2022-09-04T10:03:59.684Z,24.5
2022-09-04T10:05:05.826Z,24.7
2022-09-04T10:06:11.976Z,24
2022-09-04T10:07:18.205Z,23.5
2022-09-04T10:08:23.424Z,23.8
2022-09-04T10:09:29.467Z,24.1
2022-09-04T10:10:35.514Z,24.5
2022-09-04T10:11:41.567Z,24.9
2022-09-04T10:12:47.607Z,24.8
2022-09-04T10:13:53.642Z,24.4
2022-09-04T10:14:59.690Z,24.5
2022-09-04T10:16:05.731Z,24
2022-09-04T10:17:11.771Z,24
2022-09-04T10:18:17.828Z,24.1
2022-09-04T10:19:23.873Z,24.4
2022-09-04T10:20:29.910Z,24.1
2022-09-04T10:21:35.974Z,23.9
2022-09-04T10:22:42.011Z,23.6
2022-09-04T10:23:48.068Z,23.3
2022-09-04T10:24:54.114Z,23.5
2022-09-04T10:26:00.161Z,24.7
2022-09-04T10:27:06.162Z,24.8
2022-09-04T10:28:12.207Z,24.9
2022-09-04T10:29:18.239Z,24.9
2022-09-04T10:30:24.287Z,24.3
2022-09-04T10:31:30.336Z,23.8
2022-09-04T10:32:36.373Z,24.1
2022-09-04T10:33:42.434Z,24.2
2022-09-04T10:34:48.485Z,24.2
2022-09-04T10:35:54.575Z,23.7
2022-09-04T10:37:00.697Z,24.2
2022-09-04T10:38:06.803Z,24.8
2022-09-04T10:39:12.935Z,24.8
2022-09-04T10:40:19.045Z,25.6
2022-09-04T10:41:25.184Z,25.9
2022-09-04T10:42:31.268Z,25.6
2022-09-04T10:43:37.397Z,25.4
2022-09-04T10:44:43.505Z,25.9
2022-09-04T10:45:49.613Z,26.6
2022-09-04T10:46:55.747Z,27.4
2022-09-04T10:48:01.842Z,26.9
2022-09-04T10:49:07.957Z,26
2022-09-04T10:50:14.196Z,25.1
2022-09-04T10:51:19.400Z,24.8
2022-09-04T10:52:25.439Z,25
2022-09-04T10:53:31.475Z,25.3
2022-09-04T10:54:37.517Z,25.5
2022-09-04T10:55:43.589Z,25.5
2022-09-04T10:56:49.588Z,26
2022-09-04T10:57:55.632Z,25.9
2022-09-04T10:59:01.667Z,25.4
2022-09-04T11:00:07.738Z,24.9
2022-09-04T11:01:13.741Z,25.4
2022-09-04T11:02:19.816Z,25.6
2022-09-04T11:03:25.851Z,25.7
2022-09-04T11:04:31.860Z,25.3
2022-09-04T11:05:37.937Z,25.6
2022-09-04T11:06:43.946Z,26.1
2022-09-04T11:07:49.975Z,27
2022-09-04T11:08:56.012Z,26.7
2022-09-04T11:10:02.051Z,27
2022-09-04T11:11:08.121Z,26.7
2022-09-04T11:12:14.126Z,26.1
2022-09-04T11:13:20.169Z,26.3
2022-09-04T11:14:26.208Z,25.9
2022-09-04T11:15:32.254Z,26
2022-09-04T11:16:38.279Z,25.9
2022-09-04T11:17:44.341Z,26.4
2022-09-04T11:18:50.470Z,25.9
2022-09-04T11:19:56.554Z,26.3
2022-09-04T11:21:02.673Z,27.1
2022-09-04T11:22:08.773Z,27.1
2022-09-04T11:23:14.904Z,26.6
2022-09-04T11:24:20.999Z,26.2
2022-09-04T11:25:27.112Z,26.4
2022-09-04T11:26:33.222Z,26.4
2022-09-04T11:27:39.362Z,26.7
2022-09-04T11:28:45.463Z,26.2
2022-09-04T11:29:51.603Z,26.4
2022-09-04T11:30:57.707Z,26.7
2022-09-04T11:32:03.808Z,26.6
2022-09-04T11:33:10.062Z,27.1
2022-09-04T11:34:16.314Z,26.3
2022-09-04T11:35:21.479Z,26.3
2022-09-04T11:36:27.547Z,26.3
2022-09-04T11:37:33.563Z,26.2
2022-09-04T11:38:39.593Z,26.2
2022-09-04T11:39:45.640Z,26.5
2022-09-04T11:40:51.652Z,26.5
2022-09-04T11:41:57.685Z,26.4
2022-09-04T11:43:03.716Z,26.1
2022-09-04T11:44:09.752Z,25.8
2022-09-04T11:45:15.843Z,25.7
2022-09-04T11:46:21.851Z,25.6
2022-09-04T11:47:27.852Z,25.8
2022-09-04T11:48:33.884Z,25.8
2022-09-04T11:49:39.974Z,26.3
2022-09-04T11:50:45.964Z,25.7
2022-09-04T11:51:52.022Z,25.9
2022-09-04T11:52:58.055Z,25.9
2022-09-04T11:54:04.080Z,25.8
2022-09-04T11:55:10.112Z,26.2
2022-09-04T11:56:16.195Z,26.5
2022-09-04T11:57:22.210Z,26.3
2022-09-04T11:58:28.234Z,26.2
2022-09-04T11:59:34.262Z,26.7
2022-09-04T12:00:40.308Z,26.2
2022-09-04T12:01:46.339Z,26.2
2022-09-04T12:02:52.449Z,26
2022-09-04T12:03:58.576Z,26
2022-09-04T12:05:04.680Z,26
2022-09-04T12:06:10.807Z,25.7
2022-09-04T12:07:16.891Z,25.6
2022-09-04T12:08:23.028Z,25.5
2022-09-04T12:09:29.134Z,25.5
2022-09-04T12:10:35.219Z,25.8
2022-09-04T12:11:41.335Z,25.8
2022-09-04T12:12:47.449Z,25.7
2022-09-04T12:13:53.565Z,25.9
2022-09-04T12:14:59.687Z,25.7
2022-09-04T12:16:05.792Z,25.7
2022-09-04T12:17:12.061Z,25.5
2022-09-04T12:18:17.268Z,25.4
2022-09-04T12:19:23.278Z,25.2
2022-09-04T12:20:29.365Z,25.1
2022-09-04T12:21:35.360Z,25
2022-09-04T12:22:41.421Z,24.6
2022-09-04T12:23:47.437Z,24.5
2022-09-04T12:24:53.502Z,24.6
2022-09-04T12:25:59.524Z,25.2
2022-09-04T12:27:05.594Z,25.4
2022-09-04T12:28:11.631Z,25.4
2022-09-04T12:29:17.678Z,25.6
2022-09-04T12:30:23.677Z,25.3
2022-09-04T12:31:29.715Z,25.5
2022-09-04T12:32:35.804Z,25.3
2022-09-04T12:33:41.854Z,25.4
2022-09-04T12:34:47.829Z,25.3
2022-09-04T12:35:53.888Z,24.9
2022-09-04T12:36:59.948Z,24.6
2022-09-04T12:38:05.979Z,24.9
2022-09-04T12:39:12.021Z,24.6
2022-09-04T12:40:18.064Z,24.8
2022-09-04T12:41:24.088Z,25.2
2022-09-04T12:42:30.134Z,25.3
2022-09-04T12:43:36.176Z,25.3
2022-09-04T12:44:42.222Z,25.4
2022-09-04T12:45:48.334Z,25.4
2022-09-04T12:46:54.455Z,25.9
2022-09-04T12:48:00.565Z,26.3
2022-09-04T12:49:06.688Z,26.2
2022-09-04T12:50:12.801Z,26.3
2022-09-04T12:51:18.916Z,26.5
2022-09-04T12:52:25.039Z,25.9
2022-09-04T12:53:31.144Z,26
2022-09-04T12:54:37.255Z,26.2
2022-09-04T12:55:43.361Z,26.4
2022-09-04T12:56:49.486Z,26.1
2022-09-04T12:57:55.611Z,26.1
2022-09-04T12:59:01.720Z,26.2
2022-09-04T13:00:07.949Z,26.2
2022-09-04T13:01:14.248Z,26
2022-09-04T13:02:20.426Z,26.1
2022-09-04T13:03:26.657Z,26.3
2022-09-04T13:04:32.933Z,26.6
2022-09-04T13:05:39.120Z,26.5
2022-09-04T13:06:45.399Z,26.4
2022-09-04T13:07:51.644Z,26.2
2022-09-04T13:08:57.827Z,26.4
2022-09-04T13:10:03.029Z,26.9
2022-09-04T13:11:09.070Z,27
2022-09-04T13:12:15.121Z,26.5
2022-09-04T13:13:21.128Z,26.7
2022-09-04T13:14:27.169Z,27.1
2022-09-04T13:15:33.212Z,26.8
2022-09-04T13:16:39.226Z,26.8
2022-09-04T13:17:45.321Z,26.5
2022-09-04T13:18:51.343Z,26.5
2022-09-04T13:19:57.374Z,26.9
2022-09-04T13:21:03.374Z,26.7
2022-09-04T13:22:09.411Z,26.9
2022-09-04T13:23:15.423Z,27.4
2022-09-04T13:24:21.476Z,27.2
2022-09-04T13:25:27.491Z,27.1
2022-09-04T13:26:33.541Z,27.2
2022-09-04T13:27:39.550Z,27
2022-09-04T13:28:45.590Z,26.5
2022-09-04T13:29:51.636Z,26.5
2022-09-04T13:30:57.635Z,26.7
2022-09-04T13:32:03.715Z,26.7
2022-09-04T13:33:09.706Z,26.6
2022-09-04T13:34:15.764Z,26.9
2022-09-04T13:35:21.758Z,27
2022-09-04T13:36:27.807Z,26.6
2022-09-04T13:37:33.945Z,26.4
2022-09-04T13:38:40.015Z,26.3
2022-09-04T13:39:46.096Z,26.7
2022-09-04T13:40:52.215Z,26.8
2022-09-04T13:41:58.343Z,27.2
2022-09-04T13:43:04.440Z,27.4
2022-09-04T13:44:10.571Z,27.2
2022-09-04T13:45:16.643Z,27.3
2022-09-04T13:46:22.773Z,26.8
2022-09-04T13:47:28.903Z,26.8
2022-09-04T13:48:34.987Z,26.7
2022-09-04T13:49:41.107Z,26.6
2022-09-04T13:50:47.237Z,26.6
2022-09-04T13:51:53.461Z,26.3
2022-09-04T13:52:58.681Z,26.2
2022-09-04T13:54:04.710Z,26.3
2022-09-04T13:55:10.747Z,26.1
2022-09-04T13:56:16.780Z,25.9
2022-09-04T13:57:22.767Z,25.8
2022-09-04T13:58:28.802Z,25.8
2022-09-04T13:59:34.828Z,26
2022-09-04T14:00:40.877Z,26.4
2022-09-04T14:01:46.901Z,26.4
2022-09-04T14:02:52.945Z,26.4
2022-09-04T14:03:59.223Z,26.4
2022-09-04T14:05:05.007Z,26.5
2022-09-04T14:06:11.057Z,26.4
2022-09-04T14:07:17.078Z,26.2
2022-09-04T14:08:23.138Z,26.5
2022-09-04T14:09:29.124Z,26.6
2022-09-04T14:10:35.149Z,26.7
2022-09-04T14:11:41.182Z,26.8
2022-09-04T14:12:47.209Z,26.8
2022-09-04T14:13:53.256Z,26.8
2022-09-04T14:14:59.287Z,26.5
2022-09-04T14:16:05.312Z,26.5
2022-09-04T14:17:11.340Z,26.4
2022-09-04T14:18:17.375Z,26.2
2022-09-04T14:19:23.406Z,26.4
2022-09-04T14:20:29.517Z,26.7
2022-09-04T14:21:35.632Z,26.5
2022-09-04T14:22:41.813Z,26.4
2022-09-04T14:23:47.922Z,26.2
2022-09-04T14:24:53.976Z,26.2
2022-09-04T14:26:00.084Z,26.3
2022-09-04T14:27:06.281Z,26.7
2022-09-04T14:28:12.422Z,26.8
2022-09-04T14:29:18.438Z,26.8
2022-09-04T14:30:24.539Z,26.8
2022-09-04T14:31:30.664Z,26.9
2022-09-04T14:32:36.793Z,27
2022-09-04T14:33:42.884Z,26.9
2022-09-04T14:34:49.129Z,26.8
2022-09-04T14:35:55.362Z,27
2022-09-04T14:37:00.557Z,27
2022-09-04T14:38:06.587Z,27.2
2022-09-04T14:39:12.603Z,27.1
2022-09-04T14:40:18.643Z,26.8
2022-09-04T14:41:24.671Z,26.7
2022-09-04T14:42:30.704Z,26.9
2022-09-04T14:43:36.719Z,26.7
2022-09-04T14:44:42.759Z,26.6
2022-09-04T14:45:48.798Z,26.5
2022-09-04T14:46:54.833Z,26.4
2022-09-04T14:48:00.845Z,26.4
2022-09-04T14:49:06.885Z,26.4
2022-09-04T14:50:12.926Z,26.6